Time,TemperatureF,DewpointF,PressureIn,WindDirection,WindDirectionDegrees,WindSpeedMPH,WindSpeedGustMPH,Humidity,HourlyPrecipIn,Conditions,Clouds,dailyrainin,SoftwareType,DateUTC
2013-05-19 09:45:00,71.1,70.8,28.90,SW,225,0.0,0.0,99,0.00,RA,,0.01,WeatherDisplay:10.37,2013-05-19 13:45:00,
2013-05-19 10:00:00,71.1,70.8,28.90,SW,225,0.0,0.0,99,0.00,CLR,,0.01,WeatherDisplay:10.37,2013-05-19 14:00:00,
2013-05-19 10:15:00,70.9,70.6,28.91,SW,225,0.0,2.0,99,0.00,CLR,,0.01,WeatherDisplay:10.37,2013-05-19 14:15:00,
2013-05-19 10:30:00,70.9,70.6,28.91,SW,225,0.0,2.0,99,0.00,CLR,,0.01,WeatherDisplay:10.37,2013-05-19 14:30:00,
2013-05-19 10:45:00,70.7,70.4,28.92,WSW,246,1.0,3.0,99,0.00,CLR,,0.01,WeatherDisplay:10.37,2013-05-19 14:45:00,
2013-05-19 11:00:00,70.7,70.4,28.92,West,270,1.0,3.0,99,0.00,CLR,,0.01,WeatherDisplay:10.37,2013-05-19 15:00:00,
2013-05-19 11:15:00,69.8,69.5,28.93,NNW,339,0.0,3.0,99,0.00,CLR,,0.01,WeatherDisplay:10.37,2013-05-19 15:15:00,
2013-05-19 11:30:00,69.8,69.5,28.93,North,0,0.0,0.0,99,0.00,CLR,,0.01,WeatherDisplay:10.37,2013-05-19 15:30:00,
2013-05-19 11:45:00,68.4,68.1,28.94,North,0,0.0,0.0,99,0.04,RA,,0.05,WeatherDisplay:10.37,2013-05-19 15:45:00,
2013-05-19 12:00:00,68.4,68.1,28.94,North,0,0.0,0.0,99,0.00,CLR,,0.05,WeatherDisplay:10.37,2013-05-19 16:00:00,
2013-05-19 12:15:00,67.6,67.3,28.95,North,0,0.0,0.0,99,0.08,RA,,0.13,WeatherDisplay:10.37,2013-05-19 16:15:00,
2013-05-19 12:30:00,67.6,67.3,28.95,North,0,0.0,0.0,99,0.00,CLR,,0.13,WeatherDisplay:10.37,2013-05-19 16:30:00,
2013-05-19 12:45:00,67.1,66.8,28.95,North,0,0.0,0.0,99,0.04,RA,,0.17,WeatherDisplay:10.37,2013-05-19 16:45:00,
2013-05-19 13:00:00,67.1,66.8,28.95,North,0,0.0,0.0,99,0.00,CLR,,0.17,WeatherDisplay:10.37,2013-05-19 17:00:00,
2013-05-19 13:15:00,66.4,66.1,28.94,North,0,0.0,0.0,99,0.00,CLR,,0.17,WeatherDisplay:10.37,2013-05-19 17:15:00,
2013-05-19 13:30:00,66.4,66.1,28.94,North,0,0.0,0.0,99,0.00,CLR,,0.17,WeatherDisplay:10.37,2013-05-19 17:30:00,
2013-05-19 13:43:00,79.7,77.8,28.95,NW,315,6.9,6.9,94,0.00,CLR,,0.01,WeatherDisplay:10.37,2013-05-19 17:43:00,
2013-05-19 13:45:00,65.8,65.6,28.94,North,0,0.0,0.0,99,0.00,CLR,,0.17,WeatherDisplay:10.37,2013-05-19 17:45:00,
2013-05-19 14:00:00,65.8,65.6,28.94,North,0,0.0,0.0,99,0.00,CLR,,0.17,WeatherDisplay:10.37,2013-05-19 18:00:00,
2013-05-19 14:15:00,65.8,65.6,28.94,North,0,0.0,0.0,99,0.00,CLR,,0.00,WeatherDisplay:10.37,2013-05-19 18:15:00,
2013-05-19 14:30:00,65.8,65.6,28.94,North,0,0.0,0.0,99,0.00,CLR,,0.00,WeatherDisplay:10.37,2013-05-19 18:30:00,
2013-05-19 14:45:00,66.0,65.7,28.94,North,0,0.0,0.0,99,0.00,CLR,,0.00,WeatherDisplay:10.37,2013-05-19 18:45:00,
2013-05-19 15:00:00,66.0,65.7,28.94,North,0,0.0,0.0,99,0.00,CLR,,0.00,WeatherDisplay:10.37,2013-05-19 19:00:00,
2013-05-19 15:15:00,66.6,66.3,28.94,West,267,0.0,0.0,99,0.00,CLR,,0.00,WeatherDisplay:10.37,2013-05-19 19:15:00,
2013-05-19 15:30:00,66.6,66.3,28.94,SW,225,0.0,0.0,99,0.00,CLR,,0.00,WeatherDisplay:10.37,2013-05-19 19:30:00,
2013-05-19 15:45:00,66.7,66.5,28.94,SW,225,0.0,0.0,99,0.00,CLR,,0.00,WeatherDisplay:10.37,2013-05-19 19:45:00,
2013-05-19 16:00:00,66.7,66.5,28.94,SW,225,0.0,0.0,99,0.00,CLR,,0.00,WeatherDisplay:10.37,2013-05-19 20:00:00,
2013-05-19 16:06:00,79.2,77.6,28.91,SW,225,0.0,0.7,95,0.00,CLR,,0.01,WeatherDisplay:10.37,2013-05-19 20:06:00,
2013-05-19 16:11:00,78.6,77.1,28.91,West,270,3.5,3.5,95,0.00,CLR,,0.01,WeatherDisplay:10.37,2013-05-19 20:11:00,
2013-05-19 16:13:00,78.3,77.0,28.90,SW,225,1.2,0.0,96,0.00,CLR,,0.01,WeatherDisplay:10.37,2013-05-19 20:13:00,
2013-05-19 16:15:00,66.9,66.6,28.94,West,281,0.0,0.0,99,0.00,CLR,,0.00,WeatherDisplay:10.37,2013-05-19 20:15:00,
2013-05-19 16:16:00,78.1,76.5,28.91,SW,225,5.8,0.0,95,0.00,CLR,,0.01,WeatherDisplay:10.37,2013-05-19 20:16:00,
2013-05-19 16:22:00,77.5,76.3,28.90,SW,225,2.3,0.0,96,0.00,CLR,,0.01,WeatherDisplay:10.37,2013-05-19 20:22:00,
2013-05-19 16:24:00,77.5,76.6,28.90,SW,225,2.3,0.0,97,0.00,CLR,,0.01,WeatherDisplay:10.37,2013-05-19 20:24:00,
2013-05-19 16:29:00,77.7,77.1,28.90,SW,225,0.0,0.0,98,0.00,CLR,,0.01,WeatherDisplay:10.37,2013-05-19 20:29:00,
2013-05-19 16:30:00,66.9,66.6,28.94,NW,315,0.0,0.0,99,0.00,CLR,,0.00,WeatherDisplay:10.37,2013-05-19 20:30:00,
2013-05-19 16:34:00,77.7,77.4,28.90,SW,225,0.0,0.0,99,0.00,CLR,,0.01,WeatherDisplay:10.37,2013-05-19 20:34:00,
2013-05-19 16:39:00,78.1,76.8,28.90,NW,315,0.0,0.7,96,0.00,CLR,,0.01,WeatherDisplay:10.37,2013-05-19 20:39:00,
2013-05-19 16:44:00,77.4,76.4,28.90,NW,315,1.2,0.0,97,0.00,CLR,,0.01,WeatherDisplay:10.37,2013-05-19 20:44:00,
2013-05-19 16:45:00,66.9,66.6,28.94,West,259,0.0,0.0,99,0.00,CLR,,0.00,WeatherDisplay:10.37,2013-05-19 20:45:00,
2013-05-19 16:49:00,77.4,76.4,28.90,WNW,292,3.5,3.5,97,0.00,CLR,,0.01,WeatherDisplay:10.37,2013-05-19 20:49:00,
2013-05-19 16:54:00,77.2,76.6,28.91,SW,225,0.0,0.0,98,0.00,CLR,,0.01,WeatherDisplay:10.37,2013-05-19 20:54:00,
2013-05-19 16:59:00,77.0,76.1,28.91,NW,315,3.5,3.5,97,0.00,CLR,,0.01,WeatherDisplay:10.37,2013-05-19 20:59:00,
2013-05-19 17:00:00,66.9,66.6,28.94,SW,225,0.0,0.0,99,0.00,CLR,,0.00,WeatherDisplay:10.37,2013-05-19 21:00:00,
2013-05-19 17:04:00,76.8,76.5,28.91,NW,315,3.5,0.0,99,0.00,CLR,,0.01,WeatherDisplay:10.37,2013-05-19 21:04:00,
2013-05-19 17:09:00,77.0,76.7,28.91,NW,315,0.0,0.0,99,0.00,CLR,,0.01,WeatherDisplay:10.37,2013-05-19 21:09:00,
2013-05-19 17:14:00,77.0,76.7,28.90,NW,315,2.3,0.0,99,0.00,CLR,,0.01,WeatherDisplay:10.37,2013-05-19 21:14:00,
2013-05-19 17:15:00,66.9,66.6,28.94,SW,225,0.0,0.0,99,0.00,CLR,,0.00,WeatherDisplay:10.37,2013-05-19 21:15:00,
2013-05-19 17:19:00,77.2,76.9,28.91,West,270,2.3,0.0,99,0.00,CLR,,0.01,WeatherDisplay:10.37,2013-05-19 21:19:00,
2013-05-19 17:24:00,77.4,77.1,28.91,SW,225,0.0,0.0,99,0.00,CLR,,0.01,WeatherDisplay:10.37,2013-05-19 21:24:00,
2013-05-19 17:29:00,77.5,77.2,28.90,SW,225,0.0,0.0,99,0.00,CLR,,0.01,WeatherDisplay:10.37,2013-05-19 21:29:00,
2013-05-19 17:30:00,66.9,66.6,28.94,SW,225,0.0,0.0,99,0.00,CLR,,0.00,WeatherDisplay:10.37,2013-05-19 21:30:00,
2013-05-19 17:34:00,77.5,76.9,28.90,SW,225,0.0,0.0,98,0.00,CLR,,0.01,WeatherDisplay:10.37,2013-05-19 21:34:00,
2013-05-19 17:39:00,77.7,77.1,28.90,SW,225,0.0,0.0,98,0.00,CLR,,0.01,WeatherDisplay:10.37,2013-05-19 21:39:00,
2013-05-19 17:44:00,77.7,77.1,28.90,SW,225,0.0,0.0,98,0.00,CLR,,0.01,WeatherDisplay:10.37,2013-05-19 21:44:00,
2013-05-19 17:45:00,66.9,66.6,28.94,SW,225,0.0,0.0,99,0.00,CLR,,0.00,WeatherDisplay:10.37,2013-05-19 21:45:00,
2013-05-19 17:49:00,78.1,77.8,28.90,SW,225,0.0,0.0,99,0.00,CLR,,0.01,WeatherDisplay:10.37,2013-05-19 21:49:00,
2013-05-19 17:55:00,78.4,77.8,28.90,SW,225,0.0,0.0,98,0.00,CLR,,0.01,WeatherDisplay:10.37,2013-05-19 21:55:00,
2013-05-19 18:00:00,78.1,77.2,28.90,SW,225,2.3,0.0,97,0.00,CLR,,0.01,WeatherDisplay:10.37,2013-05-19 22:00:00,
2013-05-19 18:05:00,78.1,77.5,28.90,SW,225,0.0,0.0,98,0.00,CLR,,0.01,WeatherDisplay:10.37,2013-05-19 22:05:00,
2013-05-19 18:10:00,77.5,76.9,28.90,SW,225,0.0,0.0,98,0.00,CLR,,0.01,WeatherDisplay:10.37,2013-05-19 22:10:00,
2013-05-19 18:15:00,77.4,77.1,28.90,SW,225,0.0,0.0,99,0.00,CLR,,0.01,WeatherDisplay:10.37,2013-05-19 22:15:00,
2013-05-19 18:20:00,77.0,76.4,28.90,SW,225,0.0,0.0,98,0.00,CLR,,0.01,WeatherDisplay:10.37,2013-05-19 22:20:00,
2013-05-19 18:25:00,76.8,76.5,28.90,SW,225,0.0,0.0,99,0.00,CLR,,0.01,WeatherDisplay:10.37,2013-05-19 22:25:00,
2013-05-19 18:30:00,76.8,76.5,28.90,SW,225,0.0,0.0,99,0.00,CLR,,0.01,WeatherDisplay:10.37,2013-05-19 22:30:00,
2013-05-19 18:35:00,76.6,76.3,28.90,SW,225,0.0,0.0,99,0.00,CLR,,0.01,WeatherDisplay:10.37,2013-05-19 22:35:00,
2013-05-19 18:40:00,76.5,76.2,28.90,SW,225,0.0,0.0,99,0.00,CLR,,0.01,WeatherDisplay:10.37,2013-05-19 22:40:00,
2013-05-19 18:45:00,66.9,66.6,28.94,West,281,0.0,0.0,99,0.00,CLR,,0.00,WeatherDisplay:10.37,2013-05-19 22:45:00,
2013-05-19 18:46:00,76.1,75.8,28.90,SW,225,0.0,0.0,99,0.00,CLR,,0.01,WeatherDisplay:10.37,2013-05-19 22:46:00,
2013-05-19 18:51:00,75.9,75.6,28.90,SW,225,0.0,0.0,99,0.00,CLR,,0.01,WeatherDisplay:10.37,2013-05-19 22:51:00,
2013-05-19 18:56:00,75.6,75.3,28.90,SW,225,0.0,0.0,99,0.00,CLR,,0.01,WeatherDisplay:10.37,2013-05-19 22:56:00,
2013-05-19 19:00:00,66.9,66.6,28.94,NW,315,0.0,0.0,99,0.00,CLR,,0.00,WeatherDisplay:10.37,2013-05-19 23:00:00,
2013-05-19 19:02:00,75.2,74.9,28.90,SW,225,0.0,0.0,99,0.00,CLR,,0.01,WeatherDisplay:10.37,2013-05-19 23:02:00,
2013-05-19 19:07:00,75.0,74.7,28.90,SW,225,0.0,0.0,99,0.00,CLR,,0.01,WeatherDisplay:10.37,2013-05-19 23:07:00,
2013-05-19 19:13:00,74.7,74.4,28.90,SW,225,0.0,0.0,99,0.00,CLR,,0.01,WeatherDisplay:10.37,2013-05-19 23:13:00,
2013-05-19 19:15:00,66.7,66.5,28.94,West,259,0.0,0.0,99,0.00,CLR,,0.00,WeatherDisplay:10.37,2013-05-19 23:15:00,
2013-05-19 19:18:00,74.7,74.4,28.89,SW,225,0.0,0.0,99,0.00,CLR,,0.01,WeatherDisplay:10.37,2013-05-19 23:18:00,
2013-05-19 19:23:00,74.1,73.8,28.89,SW,225,0.0,0.0,99,0.00,CLR,,0.01,WeatherDisplay:10.37,2013-05-19 23:23:00,
2013-05-19 19:28:00,73.9,73.6,28.89,SW,225,0.0,0.0,99,0.00,CLR,,0.01,WeatherDisplay:10.37,2013-05-19 23:28:00,
2013-05-19 19:30:00,66.7,66.5,28.94,SW,225,0.0,0.0,99,0.00,CLR,,0.00,WeatherDisplay:10.37,2013-05-19 23:30:00,
2013-05-19 19:45:00,65.8,65.6,28.94,SW,225,0.0,0.0,99,0.00,CLR,,0.00,WeatherDisplay:10.37,2013-05-19 23:45:00,
2013-05-19 19:49:00,73.2,72.9,28.89,SW,225,0.0,0.0,99,0.00,CLR,,0.01,WeatherDisplay:10.37,2013-05-19 23:49:00,
2013-05-19 20:00:00,65.8,65.6,28.94,SW,225,0.0,0.0,99,0.00,CLR,,0.00,WeatherDisplay:10.37,2013-05-20 00:00:00,
2013-05-19 20:15:00,65.3,65.0,28.94,SW,225,0.0,0.0,99,0.00,CLR,,0.00,WeatherDisplay:10.37,2013-05-20 00:15:00,
2013-05-19 20:30:00,65.3,65.0,28.94,SW,225,0.0,0.0,99,0.00,CLR,,0.00,WeatherDisplay:10.37,2013-05-20 00:30:00,
2013-05-19 20:45:00,66.2,65.9,28.96,SW,225,0.0,0.0,99,0.00,CLR,,0.00,WeatherDisplay:10.37,2013-05-20 00:45:00,
2013-05-19 21:00:00,66.2,65.9,28.96,SW,225,0.0,0.0,99,0.00,CLR,,0.00,WeatherDisplay:10.37,2013-05-20 01:00:00,
2013-05-19 21:15:00,67.1,66.8,28.97,SW,225,0.0,0.0,99,0.00,CLR,,0.00,WeatherDisplay:10.37,2013-05-20 01:15:00,
2013-05-19 21:30:00,67.1,66.8,28.97,SW,225,0.0,0.0,99,0.00,CLR,,0.00,WeatherDisplay:10.37,2013-05-20 01:30:00,
2013-05-19 21:45:00,68.5,68.2,28.97,SW,225,0.0,2.0,99,0.00,CLR,,0.00,WeatherDisplay:10.37,2013-05-20 01:45:00,
2013-05-19 22:00:00,68.5,68.2,28.97,SW,225,0.0,2.0,99,0.00,CLR,,0.00,WeatherDisplay:10.37,2013-05-20 02:00:00,
2013-05-19 22:15:00,68.4,68.1,28.98,SW,225,0.0,2.0,99,0.00,CLR,,0.00,WeatherDisplay:10.37,2013-05-20 02:15:00,
2013-05-19 22:30:00,68.4,68.1,28.98,SW,225,0.0,0.0,99,0.00,CLR,,0.00,WeatherDisplay:10.37,2013-05-20 02:30:00,
2013-05-19 22:45:00,68.0,67.7,28.99,West,281,0.0,0.0,99,0.00,CLR,,0.00,WeatherDisplay:10.37,2013-05-20 02:45:00,
2013-05-19 23:00:00,68.0,67.7,28.99,NW,315,0.0,0.0,99,0.00,CLR,,0.00,WeatherDisplay:10.37,2013-05-20 03:00:00,
2013-05-19 23:15:00,72.5,72.2,28.99,NW,315,0.0,0.0,99,0.00,CLR,,0.00,WeatherDisplay:10.37,2013-05-20 03:15:00,
2013-05-19 23:30:00,72.5,72.2,28.99,NW,315,0.0,0.0,99,0.00,CLR,,0.00,WeatherDisplay:10.37,2013-05-20 03:30:00,
2013-05-19 23:45:00,73.2,72.9,28.99,West,259,0.0,0.0,99,0.00,CLR,,0.00,WeatherDisplay:10.37,2013-05-20 03:45:00,